sensor_id;sensor_type;location;lat;lon;timestamp;temperature;humidity
3940;DHT22;1984;48.312;9.244;2024-02-26T00:02:14;5.10;99.90
3940;DHT22;1984;48.312;9.244;2024-02-26T00:04:40;5.10;99.90
3940;DHT22;1984;48.312;9.244;2024-02-26T00:07:05;5.10;99.90
3940;DHT22;1984;48.312;9.244;2024-02-26T00:09:32;5.10;99.90
3940;DHT22;1984;48.312;9.244;2024-02-26T00:12:01;5.10;99.90
3940;DHT22;1984;48.312;9.244;2024-02-26T00:14:26;5.10;99.90
3940;DHT22;1984;48.312;9.244;2024-02-26T00:16:52;5.10;99.90
3940;DHT22;1984;48.312;9.244;2024-02-26T00:19:17;5.10;99.90
3940;DHT22;1984;48.312;9.244;2024-02-26T00:21:43;5.10;99.90
3940;DHT22;1984;48.312;9.244;2024-02-26T00:24:08;5.10;99.90
3940;DHT22;1984;48.312;9.244;2024-02-26T00:26:34;5.10;99.90
3940;DHT22;1984;48.312;9.244;2024-02-26T00:28:59;5.20;99.90
3940;DHT22;1984;48.312;9.244;2024-02-26T00:31:25;5.10;99.90
3940;DHT22;1984;48.312;9.244;2024-02-26T00:33:50;5.20;99.90
3940;DHT22;1984;48.312;9.244;2024-02-26T00:36:16;5.10;99.90
3940;DHT22;1984;48.312;9.244;2024-02-26T00:38:41;5.10;99.90
3940;DHT22;1984;48.312;9.244;2024-02-26T00:41:10;5.20;99.90
3940;DHT22;1984;48.312;9.244;2024-02-26T00:43:35;5.20;99.90
3940;DHT22;1984;48.312;9.244;2024-02-26T00:46:03;5.20;99.90
3940;DHT22;1984;48.312;9.244;2024-02-26T00:48:29;5.20;99.90
3940;DHT22;1984;48.312;9.244;2024-02-26T00:50:54;5.10;99.90
3940;DHT22;1984;48.312;9.244;2024-02-26T00:53:20;5.00;99.90
3940;DHT22;1984;48.312;9.244;2024-02-26T00:55:45;4.90;99.90
3940;DHT22;1984;48.312;9.244;2024-02-26T00:58:11;4.90;99.90
3940;DHT22;1984;48.312;9.244;2024-02-26T01:00:36;4.90;99.90
3940;DHT22;1984;48.312;9.244;2024-02-26T01:03:02;5.00;99.90
3940;DHT22;1984;48.312;9.244;2024-02-26T01:05:28;5.00;99.90
3940;DHT22;1984;48.312;9.244;2024-02-26T01:07:54;5.00;99.90
3940;DHT22;1984;48.312;9.244;2024-02-26T01:10:19;4.90;99.90
3940;DHT22;1984;48.312;9.244;2024-02-26T01:12:45;4.80;99.90
3940;DHT22;1984;48.312;9.244;2024-02-26T01:15:10;4.80;99.90
3940;DHT22;1984;48.312;9.244;2024-02-26T01:17:36;4.90;99.90
3940;DHT22;1984;48.312;9.244;2024-02-26T01:20:01;4.90;99.90
3940;DHT22;1984;48.312;9.244;2024-02-26T01:22:27;4.90;99.90
3940;DHT22;1984;48.312;9.244;2024-02-26T01:24:52;4.90;99.90
3940;DHT22;1984;48.312;9.244;2024-02-26T01:27:18;4.90;99.90
3940;DHT22;1984;48.312;9.244;2024-02-26T01:29:44;4.90;99.90
3940;DHT22;1984;48.312;9.244;2024-02-26T01:32:10;4.90;99.90
3940;DHT22;1984;48.312;9.244;2024-02-26T01:34:36;4.80;99.90
3940;DHT22;1984;48.312;9.244;2024-02-26T01:37:02;4.80;99.90
3940;DHT22;1984;48.312;9.244;2024-02-26T01:39:28;4.80;99.90
3940;DHT22;1984;48.312;9.244;2024-02-26T01:41:55;4.90;99.90
3940;DHT22;1984;48.312;9.244;2024-02-26T01:44:21;4.90;99.90
3940;DHT22;1984;48.312;9.244;2024-02-26T01:46:48;4.80;99.90
3940;DHT22;1984;48.312;9.244;2024-02-26T01:49:14;4.70;99.90
3940;DHT22;1984;48.312;9.244;2024-02-26T01:51:41;4.60;99.90
3940;DHT22;1984;48.312;9.244;2024-02-26T01:54:09;4.60;99.90
3940;DHT22;1984;48.312;9.244;2024-02-26T01:56:35;4.60;99.90
3940;DHT22;1984;48.312;9.244;2024-02-26T01:59:02;4.60;99.90
3940;DHT22;1984;48.312;9.244;2024-02-26T02:01:29;4.60;99.90
3940;DHT22;1984;48.312;9.244;2024-02-26T02:03:57;4.60;99.90
3940;DHT22;1984;48.312;9.244;2024-02-26T02:06:23;4.60;99.90
3940;DHT22;1984;48.312;9.244;2024-02-26T02:08:49;4.60;99.90
3940;DHT22;1984;48.312;9.244;2024-02-26T02:11:15;4.60;99.90
3940;DHT22;1984;48.312;9.244;2024-02-26T02:13:40;4.70;99.90
3940;DHT22;1984;48.312;9.244;2024-02-26T02:16:06;4.70;99.90
3940;DHT22;1984;48.312;9.244;2024-02-26T02:18:32;4.70;99.90
3940;DHT22;1984;48.312;9.244;2024-02-26T02:21:00;4.70;99.90
3940;DHT22;1984;48.312;9.244;2024-02-26T02:23:25;4.70;99.90
3940;DHT22;1984;48.312;9.244;2024-02-26T02:25:51;4.60;99.90
3940;DHT22;1984;48.312;9.244;2024-02-26T02:28:17;4.50;99.90
3940;DHT22;1984;48.312;9.244;2024-02-26T02:30:43;4.50;99.90
3940;DHT22;1984;48.312;9.244;2024-02-26T02:33:09;4.50;99.90
3940;DHT22;1984;48.312;9.244;2024-02-26T02:35:34;4.40;99.90
3940;DHT22;1984;48.312;9.244;2024-02-26T02:38:00;4.40;99.90
3940;DHT22;1984;48.312;9.244;2024-02-26T02:40:26;4.40;99.90
3940;DHT22;1984;48.312;9.244;2024-02-26T02:42:51;4.50;99.90
3940;DHT22;1984;48.312;9.244;2024-02-26T02:45:17;4.50;99.90
3940;DHT22;1984;48.312;9.244;2024-02-26T02:47:42;4.60;99.90
3940;DHT22;1984;48.312;9.244;2024-02-26T02:50:08;4.60;99.90
3940;DHT22;1984;48.312;9.244;2024-02-26T02:52:33;4.60;99.90
3940;DHT22;1984;48.312;9.244;2024-02-26T02:54:59;4.60;99.90
3940;DHT22;1984;48.312;9.244;2024-02-26T02:57:25;4.60;99.90
3940;DHT22;1984;48.312;9.244;2024-02-26T02:59:50;4.60;99.90
3940;DHT22;1984;48.312;9.244;2024-02-26T03:02:15;4.50;99.90
3940;DHT22;1984;48.312;9.244;2024-02-26T03:04:41;4.50;99.90
3940;DHT22;1984;48.312;9.244;2024-02-26T03:07:06;4.60;99.90
3940;DHT22;1984;48.312;9.244;2024-02-26T03:09:32;4.60;99.90
3940;DHT22;1984;48.312;9.244;2024-02-26T03:11:58;4.70;99.90
3940;DHT22;1984;48.312;9.244;2024-02-26T03:14:23;4.60;99.90
3940;DHT22;1984;48.312;9.244;2024-02-26T03:16:49;4.60;99.90
3940;DHT22;1984;48.312;9.244;2024-02-26T03:19:15;4.60;99.90
3940;DHT22;1984;48.312;9.244;2024-02-26T03:21:44;4.60;99.90
3940;DHT22;1984;48.312;9.244;2024-02-26T03:24:09;4.60;99.90
3940;DHT22;1984;48.312;9.244;2024-02-26T03:26:36;4.60;99.90
3940;DHT22;1984;48.312;9.244;2024-02-26T03:29:02;4.50;99.90
3940;DHT22;1984;48.312;9.244;2024-02-26T03:31:28;4.40;99.90
3940;DHT22;1984;48.312;9.244;2024-02-26T03:33:53;4.40;99.90
3940;DHT22;1984;48.312;9.244;2024-02-26T03:36:19;4.40;99.90
3940;DHT22;1984;48.312;9.244;2024-02-26T03:38:47;4.40;99.90
3940;DHT22;1984;48.312;9.244;2024-02-26T03:41:12;4.50;99.90
3940;DHT22;1984;48.312;9.244;2024-02-26T03:43:38;4.50;99.90
3940;DHT22;1984;48.312;9.244;2024-02-26T03:46:03;4.50;99.90
3940;DHT22;1984;48.312;9.244;2024-02-26T03:48:29;4.50;99.90
3940;DHT22;1984;48.312;9.244;2024-02-26T03:50:54;4.50;99.90
3940;DHT22;1984;48.312;9.244;2024-02-26T03:53:20;4.50;99.90
3940;DHT22;1984;48.312;9.244;2024-02-26T03:55:45;4.50;99.90
3940;DHT22;1984;48.312;9.244;2024-02-26T03:58:12;4.50;99.90
3940;DHT22;1984;48.312;9.244;2024-02-26T04:00:38;4.50;99.90
3940;DHT22;1984;48.312;9.244;2024-02-26T04:03:03;4.40;99.90
3940;DHT22;1984;48.312;9.244;2024-02-26T04:05:29;4.40;99.90
3940;DHT22;1984;48.312;9.244;2024-02-26T04:07:54;4.40;99.90
3940;DHT22;1984;48.312;9.244;2024-02-26T04:10:20;4.50;99.90
3940;DHT22;1984;48.312;9.244;2024-02-26T04:12:45;4.50;99.90
3940;DHT22;1984;48.312;9.244;2024-02-26T04:15:12;4.50;99.90
3940;DHT22;1984;48.312;9.244;2024-02-26T04:17:37;4.50;99.90
3940;DHT22;1984;48.312;9.244;2024-02-26T04:20:04;4.50;99.90
3940;DHT22;1984;48.312;9.244;2024-02-26T04:22:30;4.50;99.90
3940;DHT22;1984;48.312;9.244;2024-02-26T04:24:56;4.60;99.90
3940;DHT22;1984;48.312;9.244;2024-02-26T04:27:22;4.60;99.90
3940;DHT22;1984;48.312;9.244;2024-02-26T04:29:47;4.60;99.90
3940;DHT22;1984;48.312;9.244;2024-02-26T04:32:13;4.60;99.90
3940;DHT22;1984;48.312;9.244;2024-02-26T04:34:38;4.60;99.90
3940;DHT22;1984;48.312;9.244;2024-02-26T04:37:04;4.60;99.90
3940;DHT22;1984;48.312;9.244;2024-02-26T04:39:29;4.60;99.90
3940;DHT22;1984;48.312;9.244;2024-02-26T04:41:55;4.70;99.90
3940;DHT22;1984;48.312;9.244;2024-02-26T04:44:20;4.70;99.90
3940;DHT22;1984;48.312;9.244;2024-02-26T04:46:46;4.70;99.90
3940;DHT22;1984;48.312;9.244;2024-02-26T04:49:11;4.70;99.90
3940;DHT22;1984;48.312;9.244;2024-02-26T04:51:37;4.70;99.90
3940;DHT22;1984;48.312;9.244;2024-02-26T04:54:02;4.70;99.90
3940;DHT22;1984;48.312;9.244;2024-02-26T04:56:28;4.80;99.90
3940;DHT22;1984;48.312;9.244;2024-02-26T04:58:53;4.80;99.90
3940;DHT22;1984;48.312;9.244;2024-02-26T05:01:19;4.80;99.90
3940;DHT22;1984;48.312;9.244;2024-02-26T05:03:44;4.80;99.90
3940;DHT22;1984;48.312;9.244;2024-02-26T05:06:10;4.90;99.90
3940;DHT22;1984;48.312;9.244;2024-02-26T05:08:36;4.80;99.90
3940;DHT22;1984;48.312;9.244;2024-02-26T05:11:03;4.80;99.90
3940;DHT22;1984;48.312;9.244;2024-02-26T05:13:29;4.90;99.90
3940;DHT22;1984;48.312;9.244;2024-02-26T05:15:54;4.80;99.90
3940;DHT22;1984;48.312;9.244;2024-02-26T05:18:20;4.90;99.90
3940;DHT22;1984;48.312;9.244;2024-02-26T05:20:47;4.90;99.90
3940;DHT22;1984;48.312;9.244;2024-02-26T05:23:12;4.90;99.90
3940;DHT22;1984;48.312;9.244;2024-02-26T05:25:38;4.90;99.90
3940;DHT22;1984;48.312;9.244;2024-02-26T05:28:04;4.90;99.90
3940;DHT22;1984;48.312;9.244;2024-02-26T05:30:29;4.90;99.90
3940;DHT22;1984;48.312;9.244;2024-02-26T05:32:55;4.80;99.90
3940;DHT22;1984;48.312;9.244;2024-02-26T05:35:20;4.80;99.90
3940;DHT22;1984;48.312;9.244;2024-02-26T05:37:46;4.80;99.90
3940;DHT22;1984;48.312;9.244;2024-02-26T05:40:12;4.70;99.90
3940;DHT22;1984;48.312;9.244;2024-02-26T05:42:37;4.60;99.90
3940;DHT22;1984;48.312;9.244;2024-02-26T05:45:03;4.60;99.90
3940;DHT22;1984;48.312;9.244;2024-02-26T05:47:35;4.60;99.90
3940;DHT22;1984;48.312;9.244;2024-02-26T05:50:01;4.50;99.90
3940;DHT22;1984;48.312;9.244;2024-02-26T05:52:27;4.50;99.90
3940;DHT22;1984;48.312;9.244;2024-02-26T05:54:54;4.50;99.90
3940;DHT22;1984;48.312;9.244;2024-02-26T05:57:20;4.50;99.90
3940;DHT22;1984;48.312;9.244;2024-02-26T05:59:45;4.50;99.90
3940;DHT22;1984;48.312;9.244;2024-02-26T06:02:11;4.50;99.90
3940;DHT22;1984;48.312;9.244;2024-02-26T06:04:36;4.40;99.90
3940;DHT22;1984;48.312;9.244;2024-02-26T06:07:02;4.40;99.90
3940;DHT22;1984;48.312;9.244;2024-02-26T06:09:28;4.30;99.90
3940;DHT22;1984;48.312;9.244;2024-02-26T06:11:53;4.20;99.90
3940;DHT22;1984;48.312;9.244;2024-02-26T06:14:19;4.20;99.90
3940;DHT22;1984;48.312;9.244;2024-02-26T06:16:46;4.20;99.90
3940;DHT22;1984;48.312;9.244;2024-02-26T06:19:11;4.20;99.90
3940;DHT22;1984;48.312;9.244;2024-02-26T06:21:37;4.20;99.90
3940;DHT22;1984;48.312;9.244;2024-02-26T06:24:02;4.20;99.90
3940;DHT22;1984;48.312;9.244;2024-02-26T06:26:28;4.20;99.90
3940;DHT22;1984;48.312;9.244;2024-02-26T06:28:54;4.20;99.90
3940;DHT22;1984;48.312;9.244;2024-02-26T06:31:21;4.20;99.90
3940;DHT22;1984;48.312;9.244;2024-02-26T06:33:48;4.30;99.90
3940;DHT22;1984;48.312;9.244;2024-02-26T06:36:15;4.30;99.90
3940;DHT22;1984;48.312;9.244;2024-02-26T06:38:40;4.30;99.90
3940;DHT22;1984;48.312;9.244;2024-02-26T06:41:06;4.30;99.90
3940;DHT22;1984;48.312;9.244;2024-02-26T06:43:31;4.30;99.90
3940;DHT22;1984;48.312;9.244;2024-02-26T06:45:57;4.40;99.90
3940;DHT22;1984;48.312;9.244;2024-02-26T06:48:24;4.40;99.90
3940;DHT22;1984;48.312;9.244;2024-02-26T06:50:49;4.50;99.90
3940;DHT22;1984;48.312;9.244;2024-02-26T06:53:15;4.60;99.90
3940;DHT22;1984;48.312;9.244;2024-02-26T06:55:42;4.70;99.90
3940;DHT22;1984;48.312;9.244;2024-02-26T06:58:08;4.80;99.90
3940;DHT22;1984;48.312;9.244;2024-02-26T07:00:34;4.80;99.90
3940;DHT22;1984;48.312;9.244;2024-02-26T07:02:59;4.90;99.90
3940;DHT22;1984;48.312;9.244;2024-02-26T07:05:25;5.00;99.90
3940;DHT22;1984;48.312;9.244;2024-02-26T07:07:50;5.10;99.90
3940;DHT22;1984;48.312;9.244;2024-02-26T07:10:16;5.10;99.90
3940;DHT22;1984;48.312;9.244;2024-02-26T07:12:41;5.20;99.90
3940;DHT22;1984;48.312;9.244;2024-02-26T07:15:09;5.20;99.90
3940;DHT22;1984;48.312;9.244;2024-02-26T07:17:34;5.30;99.90
3940;DHT22;1984;48.312;9.244;2024-02-26T07:20:00;5.30;99.90
3940;DHT22;1984;48.312;9.244;2024-02-26T07:22:25;5.10;99.90
3940;DHT22;1984;48.312;9.244;2024-02-26T07:24:51;5.10;99.90
3940;DHT22;1984;48.312;9.244;2024-02-26T07:27:18;5.20;99.90
3940;DHT22;1984;48.312;9.244;2024-02-26T07:29:43;5.30;99.90
3940;DHT22;1984;48.312;9.244;2024-02-26T07:32:09;5.40;99.90
3940;DHT22;1984;48.312;9.244;2024-02-26T07:34:36;5.50;99.90
3940;DHT22;1984;48.312;9.244;2024-02-26T07:37:03;5.50;99.90
3940;DHT22;1984;48.312;9.244;2024-02-26T07:39:28;5.70;99.90
3940;DHT22;1984;48.312;9.244;2024-02-26T07:41:54;5.80;99.90
3940;DHT22;1984;48.312;9.244;2024-02-26T07:44:19;5.90;99.90
3940;DHT22;1984;48.312;9.244;2024-02-26T07:46:45;5.90;99.90
3940;DHT22;1984;48.312;9.244;2024-02-26T07:49:11;5.90;99.90
3940;DHT22;1984;48.312;9.244;2024-02-26T07:51:36;5.90;99.90
3940;DHT22;1984;48.312;9.244;2024-02-26T07:54:02;6.00;99.90
3940;DHT22;1984;48.312;9.244;2024-02-26T07:56:27;6.00;99.90
3940;DHT22;1984;48.312;9.244;2024-02-26T07:58:53;6.00;99.90
3940;DHT22;1984;48.312;9.244;2024-02-26T08:01:18;5.90;99.90
3940;DHT22;1984;48.312;9.244;2024-02-26T08:03:44;5.80;99.90
3940;DHT22;1984;48.312;9.244;2024-02-26T08:06:10;5.80;99.90
3940;DHT22;1984;48.312;9.244;2024-02-26T08:08:35;5.80;99.90
3940;DHT22;1984;48.312;9.244;2024-02-26T08:11:01;5.80;99.90
3940;DHT22;1984;48.312;9.244;2024-02-26T08:13:26;5.90;99.90
3940;DHT22;1984;48.312;9.244;2024-02-26T08:15:52;5.90;99.90
3940;DHT22;1984;48.312;9.244;2024-02-26T08:18:18;5.90;99.90
3940;DHT22;1984;48.312;9.244;2024-02-26T08:20:44;6.00;99.90
3940;DHT22;1984;48.312;9.244;2024-02-26T08:23:10;6.00;99.90
3940;DHT22;1984;48.312;9.244;2024-02-26T08:25:35;6.10;99.90
3940;DHT22;1984;48.312;9.244;2024-02-26T08:28:01;6.00;99.90
3940;DHT22;1984;48.312;9.244;2024-02-26T08:30:26;6.00;99.90
3940;DHT22;1984;48.312;9.244;2024-02-26T08:32:52;6.00;99.90
3940;DHT22;1984;48.312;9.244;2024-02-26T08:35:18;6.10;99.90
3940;DHT22;1984;48.312;9.244;2024-02-26T08:37:47;6.10;99.90
3940;DHT22;1984;48.312;9.244;2024-02-26T08:40:13;6.20;99.90
3940;DHT22;1984;48.312;9.244;2024-02-26T08:42:39;6.30;99.90
3940;DHT22;1984;48.312;9.244;2024-02-26T08:45:05;6.40;99.90
3940;DHT22;1984;48.312;9.244;2024-02-26T08:47:30;6.40;99.90
3940;DHT22;1984;48.312;9.244;2024-02-26T08:49:56;6.50;99.90
3940;DHT22;1984;48.312;9.244;2024-02-26T08:52:21;6.60;99.90
3940;DHT22;1984;48.312;9.244;2024-02-26T08:54:48;6.80;99.90
3940;DHT22;1984;48.312;9.244;2024-02-26T08:57:14;6.80;99.90
3940;DHT22;1984;48.312;9.244;2024-02-26T08:59:39;6.90;99.90
3940;DHT22;1984;48.312;9.244;2024-02-26T09:02:05;7.00;99.90
3940;DHT22;1984;48.312;9.244;2024-02-26T09:04:30;7.00;99.90
3940;DHT22;1984;48.312;9.244;2024-02-26T09:06:56;7.10;99.90
3940;DHT22;1984;48.312;9.244;2024-02-26T09:09:21;7.10;99.90
3940;DHT22;1984;48.312;9.244;2024-02-26T09:11:48;7.20;99.90
3940;DHT22;1984;48.312;9.244;2024-02-26T09:14:14;7.30;99.90
3940;DHT22;1984;48.312;9.244;2024-02-26T09:16:39;7.40;99.90
3940;DHT22;1984;48.312;9.244;2024-02-26T09:19:05;7.50;99.90
3940;DHT22;1984;48.312;9.244;2024-02-26T09:21:30;7.50;99.90
3940;DHT22;1984;48.312;9.244;2024-02-26T09:23:56;7.60;99.90
3940;DHT22;1984;48.312;9.244;2024-02-26T09:26:21;7.60;99.90
3940;DHT22;1984;48.312;9.244;2024-02-26T09:28:47;7.60;99.90
3940;DHT22;1984;48.312;9.244;2024-02-26T09:31:14;7.70;99.90
3940;DHT22;1984;48.312;9.244;2024-02-26T09:33:41;7.80;99.90
3940;DHT22;1984;48.312;9.244;2024-02-26T09:36:07;7.80;99.90
3940;DHT22;1984;48.312;9.244;2024-02-26T09:38:34;7.90;99.90
3940;DHT22;1984;48.312;9.244;2024-02-26T09:41:04;8.10;99.90
3940;DHT22;1984;48.312;9.244;2024-02-26T09:43:34;8.30;99.90
3940;DHT22;1984;48.312;9.244;2024-02-26T09:46:00;8.30;99.90
3940;DHT22;1984;48.312;9.244;2024-02-26T09:48:25;8.50;99.90
3940;DHT22;1984;48.312;9.244;2024-02-26T09:50:52;8.60;99.90
3940;DHT22;1984;48.312;9.244;2024-02-26T09:53:18;8.70;99.90
3940;DHT22;1984;48.312;9.244;2024-02-26T09:55:45;8.90;99.90
3940;DHT22;1984;48.312;9.244;2024-02-26T09:58:11;9.10;99.90
3940;DHT22;1984;48.312;9.244;2024-02-26T10:00:46;9.50;99.90
3940;DHT22;1984;48.312;9.244;2024-02-26T10:03:15;10.00;99.90
3940;DHT22;1984;48.312;9.244;2024-02-26T10:05:41;10.70;99.90
3940;DHT22;1984;48.312;9.244;2024-02-26T10:08:09;11.30;99.90
3940;DHT22;1984;48.312;9.244;2024-02-26T10:10:36;12.50;99.90
3940;DHT22;1984;48.312;9.244;2024-02-26T10:13:03;13.80;99.90
3940;DHT22;1984;48.312;9.244;2024-02-26T10:15:35;14.30;99.90
3940;DHT22;1984;48.312;9.244;2024-02-26T10:18:04;14.40;99.90
3940;DHT22;1984;48.312;9.244;2024-02-26T10:20:30;14.30;99.90
3940;DHT22;1984;48.312;9.244;2024-02-26T10:22:57;14.10;99.90
3940;DHT22;1984;48.312;9.244;2024-02-26T10:25:22;14.00;99.90
3940;DHT22;1984;48.312;9.244;2024-02-26T10:27:48;13.70;99.90
3940;DHT22;1984;48.312;9.244;2024-02-26T10:30:19;13.30;99.90
3940;DHT22;1984;48.312;9.244;2024-02-26T10:32:46;13.00;99.90
3940;DHT22;1984;48.312;9.244;2024-02-26T10:35:13;12.60;99.90
3940;DHT22;1984;48.312;9.244;2024-02-26T10:37:40;12.20;99.90
3940;DHT22;1984;48.312;9.244;2024-02-26T10:40:09;11.90;99.90
3940;DHT22;1984;48.312;9.244;2024-02-26T10:42:34;11.80;99.90
3940;DHT22;1984;48.312;9.244;2024-02-26T10:45:00;11.80;99.90
3940;DHT22;1984;48.312;9.244;2024-02-26T10:47:28;11.90;99.90
3940;DHT22;1984;48.312;9.244;2024-02-26T10:49:54;12.20;99.90
3940;DHT22;1984;48.312;9.244;2024-02-26T10:52:22;12.20;99.90
3940;DHT22;1984;48.312;9.244;2024-02-26T10:54:53;12.20;99.90
3940;DHT22;1984;48.312;9.244;2024-02-26T10:57:19;12.10;99.90
3940;DHT22;1984;48.312;9.244;2024-02-26T10:59:46;11.90;99.90
3940;DHT22;1984;48.312;9.244;2024-02-26T11:02:13;11.60;99.90
3940;DHT22;1984;48.312;9.244;2024-02-26T11:04:39;11.40;99.90
3940;DHT22;1984;48.312;9.244;2024-02-26T11:07:05;11.30;99.90
3940;DHT22;1984;48.312;9.244;2024-02-26T11:09:32;11.10;99.90
3940;DHT22;1984;48.312;9.244;2024-02-26T11:11:58;11.10;99.90
3940;DHT22;1984;48.312;9.244;2024-02-26T11:14:25;11.20;99.90
3940;DHT22;1984;48.312;9.244;2024-02-26T11:16:51;11.30;99.90
3940;DHT22;1984;48.312;9.244;2024-02-26T11:19:18;11.40;99.90
3940;DHT22;1984;48.312;9.244;2024-02-26T11:21:43;11.50;99.90
3940;DHT22;1984;48.312;9.244;2024-02-26T11:24:12;11.50;99.90
3940;DHT22;1984;48.312;9.244;2024-02-26T11:26:48;11.50;99.90
3940;DHT22;1984;48.312;9.244;2024-02-26T11:29:19;11.50;99.90
3940;DHT22;1984;48.312;9.244;2024-02-26T11:31:46;11.40;99.90
3940;DHT22;1984;48.312;9.244;2024-02-26T11:34:12;11.50;99.90
3940;DHT22;1984;48.312;9.244;2024-02-26T11:36:38;11.50;99.90
3940;DHT22;1984;48.312;9.244;2024-02-26T11:39:04;11.40;99.90
3940;DHT22;1984;48.312;9.244;2024-02-26T11:41:31;11.40;99.90
3940;DHT22;1984;48.312;9.244;2024-02-26T11:44:01;11.30;99.90
3940;DHT22;1984;48.312;9.244;2024-02-26T11:46:40;11.40;99.90
3940;DHT22;1984;48.312;9.244;2024-02-26T11:49:30;11.40;99.90
3940;DHT22;1984;48.312;9.244;2024-02-26T11:51:57;11.40;99.90
3940;DHT22;1984;48.312;9.244;2024-02-26T11:54:53;11.30;99.90
3940;DHT22;1984;48.312;9.244;2024-02-26T12:02:45;11.20;99.90
3940;DHT22;1984;48.312;9.244;2024-02-26T12:05:21;11.30;99.90
3940;DHT22;1984;48.312;9.244;2024-02-26T12:08:03;11.40;99.90
3940;DHT22;1984;48.312;9.244;2024-02-26T12:10:33;11.30;99.90
3940;DHT22;1984;48.312;9.244;2024-02-26T12:13:11;11.40;99.90
3940;DHT22;1984;48.312;9.244;2024-02-26T12:15:42;11.40;99.90
3940;DHT22;1984;48.312;9.244;2024-02-26T12:18:09;11.30;99.90
3940;DHT22;1984;48.312;9.244;2024-02-26T12:20:36;11.40;99.90
3940;DHT22;1984;48.312;9.244;2024-02-26T12:23:03;11.40;99.90
3940;DHT22;1984;48.312;9.244;2024-02-26T12:25:32;11.50;99.90
3940;DHT22;1984;48.312;9.244;2024-02-26T12:27:59;11.60;99.90
3940;DHT22;1984;48.312;9.244;2024-02-26T12:30:24;11.60;99.90
3940;DHT22;1984;48.312;9.244;2024-02-26T12:32:55;11.70;99.90
3940;DHT22;1984;48.312;9.244;2024-02-26T12:35:26;11.80;99.90
3940;DHT22;1984;48.312;9.244;2024-02-26T12:37:55;11.90;99.90
3940;DHT22;1984;48.312;9.244;2024-02-26T12:40:21;12.00;99.90
3940;DHT22;1984;48.312;9.244;2024-02-26T12:42:47;11.90;99.90
3940;DHT22;1984;48.312;9.244;2024-02-26T12:45:14;11.90;99.90
3940;DHT22;1984;48.312;9.244;2024-02-26T12:47:42;12.00;99.90
3940;DHT22;1984;48.312;9.244;2024-02-26T12:50:09;11.90;99.90
3940;DHT22;1984;48.312;9.244;2024-02-26T12:52:36;12.00;99.90
3940;DHT22;1984;48.312;9.244;2024-02-26T12:55:02;11.90;99.90
3940;DHT22;1984;48.312;9.244;2024-02-26T12:57:32;11.70;99.90
3940;DHT22;1984;48.312;9.244;2024-02-26T12:59:59;11.60;99.90
3940;DHT22;1984;48.312;9.244;2024-02-26T13:02:25;11.60;99.90
3940;DHT22;1984;48.312;9.244;2024-02-26T13:04:51;11.60;99.90
3940;DHT22;1984;48.312;9.244;2024-02-26T13:07:17;11.70;99.90
3940;DHT22;1984;48.312;9.244;2024-02-26T13:09:43;11.60;99.90
3940;DHT22;1984;48.312;9.244;2024-02-26T13:12:09;11.60;99.90
3940;DHT22;1984;48.312;9.244;2024-02-26T13:14:35;11.60;99.90
3940;DHT22;1984;48.312;9.244;2024-02-26T13:17:01;11.60;99.90
3940;DHT22;1984;48.312;9.244;2024-02-26T13:19:27;11.60;99.90
3940;DHT22;1984;48.312;9.244;2024-02-26T13:21:54;11.70;99.90
3940;DHT22;1984;48.312;9.244;2024-02-26T13:24:20;11.70;99.90
3940;DHT22;1984;48.312;9.244;2024-02-26T13:26:45;11.60;99.90
3940;DHT22;1984;48.312;9.244;2024-02-26T13:29:18;11.50;99.90
3940;DHT22;1984;48.312;9.244;2024-02-26T13:31:44;11.60;99.90
3940;DHT22;1984;48.312;9.244;2024-02-26T13:34:09;11.70;99.90
3940;DHT22;1984;48.312;9.244;2024-02-26T13:36:35;11.80;99.90
3940;DHT22;1984;48.312;9.244;2024-02-26T13:39:01;11.70;99.90
3940;DHT22;1984;48.312;9.244;2024-02-26T13:41:29;11.70;99.90
3940;DHT22;1984;48.312;9.244;2024-02-26T13:43:54;11.90;99.90
3940;DHT22;1984;48.312;9.244;2024-02-26T13:46:20;11.90;99.90
3940;DHT22;1984;48.312;9.244;2024-02-26T13:48:45;11.80;99.90
3940;DHT22;1984;48.312;9.244;2024-02-26T13:51:11;11.80;99.90
3940;DHT22;1984;48.312;9.244;2024-02-26T13:53:36;11.70;99.90
3940;DHT22;1984;48.312;9.244;2024-02-26T13:56:02;11.70;99.90
3940;DHT22;1984;48.312;9.244;2024-02-26T13:58:30;11.70;99.90
3940;DHT22;1984;48.312;9.244;2024-02-26T14:00:56;11.70;99.90
3940;DHT22;1984;48.312;9.244;2024-02-26T14:03:22;11.80;99.90
3940;DHT22;1984;48.312;9.244;2024-02-26T14:05:47;11.70;99.90
3940;DHT22;1984;48.312;9.244;2024-02-26T14:08:13;11.80;99.90
3940;DHT22;1984;48.312;9.244;2024-02-26T14:10:39;11.80;99.90
3940;DHT22;1984;48.312;9.244;2024-02-26T14:13:05;11.90;99.90
3940;DHT22;1984;48.312;9.244;2024-02-26T14:15:30;12.00;99.90
3940;DHT22;1984;48.312;9.244;2024-02-26T14:17:56;12.10;99.90
3940;DHT22;1984;48.312;9.244;2024-02-26T14:20:23;12.10;99.90
3940;DHT22;1984;48.312;9.244;2024-02-26T14:22:50;12.10;99.90
3940;DHT22;1984;48.312;9.244;2024-02-26T14:25:16;12.10;99.90
3940;DHT22;1984;48.312;9.244;2024-02-26T14:27:42;11.90;99.90
3940;DHT22;1984;48.312;9.244;2024-02-26T14:30:08;11.90;99.90
3940;DHT22;1984;48.312;9.244;2024-02-26T14:32:34;11.80;99.90
3940;DHT22;1984;48.312;9.244;2024-02-26T14:35:02;11.70;99.90
3940;DHT22;1984;48.312;9.244;2024-02-26T14:37:28;11.60;99.90
3940;DHT22;1984;48.312;9.244;2024-02-26T14:39:54;11.50;99.90
3940;DHT22;1984;48.312;9.244;2024-02-26T14:42:19;11.40;99.90
3940;DHT22;1984;48.312;9.244;2024-02-26T14:44:45;11.40;99.90
3940;DHT22;1984;48.312;9.244;2024-02-26T14:47:13;11.50;99.90
3940;DHT22;1984;48.312;9.244;2024-02-26T14:49:38;11.50;99.90
3940;DHT22;1984;48.312;9.244;2024-02-26T14:52:04;11.50;99.90
3940;DHT22;1984;48.312;9.244;2024-02-26T14:54:30;11.40;99.90
3940;DHT22;1984;48.312;9.244;2024-02-26T14:57:03;11.40;99.90
3940;DHT22;1984;48.312;9.244;2024-02-26T14:59:29;11.40;99.90
3940;DHT22;1984;48.312;9.244;2024-02-26T15:01:56;11.50;99.90
3940;DHT22;1984;48.312;9.244;2024-02-26T15:04:21;11.40;99.90
3940;DHT22;1984;48.312;9.244;2024-02-26T15:06:47;11.40;99.90
3940;DHT22;1984;48.312;9.244;2024-02-26T15:09:13;11.40;99.90
3940;DHT22;1984;48.312;9.244;2024-02-26T15:11:39;11.30;99.90
3940;DHT22;1984;48.312;9.244;2024-02-26T15:14:05;11.30;99.90
3940;DHT22;1984;48.312;9.244;2024-02-26T15:16:31;11.10;99.90
3940;DHT22;1984;48.312;9.244;2024-02-26T15:18:56;10.90;99.90
3940;DHT22;1984;48.312;9.244;2024-02-26T15:21:22;10.80;99.90
3940;DHT22;1984;48.312;9.244;2024-02-26T15:23:47;10.80;99.90
3940;DHT22;1984;48.312;9.244;2024-02-26T15:26:15;10.80;99.90
3940;DHT22;1984;48.312;9.244;2024-02-26T15:28:42;10.70;99.90
3940;DHT22;1984;48.312;9.244;2024-02-26T15:31:08;10.60;99.90
3940;DHT22;1984;48.312;9.244;2024-02-26T15:33:33;10.50;99.90
3940;DHT22;1984;48.312;9.244;2024-02-26T15:35:59;10.30;99.90
3940;DHT22;1984;48.312;9.244;2024-02-26T15:38:25;10.20;99.90
3940;DHT22;1984;48.312;9.244;2024-02-26T15:40:50;10.20;99.90
3940;DHT22;1984;48.312;9.244;2024-02-26T15:43:16;10.10;99.90
3940;DHT22;1984;48.312;9.244;2024-02-26T15:45:41;10.00;99.90
3940;DHT22;1984;48.312;9.244;2024-02-26T15:48:07;10.00;99.90
3940;DHT22;1984;48.312;9.244;2024-02-26T15:50:32;10.00;99.90
3940;DHT22;1984;48.312;9.244;2024-02-26T15:52:58;10.00;99.90
3940;DHT22;1984;48.312;9.244;2024-02-26T15:55:24;10.00;99.90
3940;DHT22;1984;48.312;9.244;2024-02-26T15:57:49;10.00;99.90
3940;DHT22;1984;48.312;9.244;2024-02-26T16:00:15;10.00;99.90
3940;DHT22;1984;48.312;9.244;2024-02-26T16:02:41;9.90;99.90
3940;DHT22;1984;48.312;9.244;2024-02-26T16:05:07;9.80;99.90
3940;DHT22;1984;48.312;9.244;2024-02-26T16:07:35;9.80;99.90
3940;DHT22;1984;48.312;9.244;2024-02-26T16:10:01;9.80;99.90
3940;DHT22;1984;48.312;9.244;2024-02-26T16:12:36;9.80;99.90